In Rescue
 
Open Full Screen Window  High Contrast Mode
Wind Gusting 16 knots
10
May 25, 2022 9:29 PM CDT
Present Weather: Light Rain
Weather Information
Wind Direction
  010 °
Wind Speed
  10 kt (12 mph)
Wind Gust
  16 kt (18 mph)
Altimeter
29.81 in
Visibility
10 SM
Temperature
11° C
52° F
Dewpoint
10° C
50° F
Humidity
94%
1hr Rain Fall
00.01 in.
24hr Rain Fall
00.43 in.
Sky Condition
Overcast @ 800 ft
IFR

METAR KSYN 260229Z AUTO 01010G16KT 10SM -RA OVC008 11/10 A2981 RMK AO2 T01050096 P0001

FAA Disclaimer: The data displayed is for advisory purposes only and is not to be used for flight planning or operations.